sensor_id;sensor_type;location;lat;lon;timestamp;P1;durP1;ratioP1;P2;durP2;ratioP2
12171;SDS011;6149;52.418;13.668;2023-03-14T00:00:19;1.13;;;0.90;;
12171;SDS011;6149;52.418;13.668;2023-03-14T00:02:51;1.17;;;1.03;;
12171;SDS011;6149;52.418;13.668;2023-03-14T00:05:19;1.10;;;1.00;;
12171;SDS011;6149;52.418;13.668;2023-03-14T00:07:49;3.60;;;1.17;;
12171;SDS011;6149;52.418;13.668;2023-03-14T00:10:18;1.60;;;0.93;;
12171;SDS011;6149;52.418;13.668;2023-03-14T00:12:49;1.60;;;1.10;;
12171;SDS011;6149;52.418;13.668;2023-03-14T00:15:16;2.13;;;1.17;;
12171;SDS011;6149;52.418;13.668;2023-03-14T00:17:44;1.73;;;1.20;;
12171;SDS011;6149;52.418;13.668;2023-03-14T00:20:11;1.13;;;0.97;;
12171;SDS011;6149;52.418;13.668;2023-03-14T00:22:38;3.20;;;1.13;;
12171;SDS011;6149;52.418;13.668;2023-03-14T00:25:08;2.80;;;1.00;;
12171;SDS011;6149;52.418;13.668;2023-03-14T00:27:40;1.53;;;1.00;;
12171;SDS011;6149;52.418;13.668;2023-03-14T00:30:08;1.57;;;0.90;;
12171;SDS011;6149;52.418;13.668;2023-03-14T00:32:41;1.60;;;1.10;;
12171;SDS011;6149;52.418;13.668;2023-03-14T00:35:08;2.03;;;1.20;;
12171;SDS011;6149;52.418;13.668;2023-03-14T00:37:35;1.93;;;1.40;;
12171;SDS011;6149;52.418;13.668;2023-03-14T00:40:01;1.57;;;1.00;;
12171;SDS011;6149;52.418;13.668;2023-03-14T00:42:35;1.43;;;1.20;;
12171;SDS011;6149;52.418;13.668;2023-03-14T00:45:03;1.83;;;1.00;;
12171;SDS011;6149;52.418;13.668;2023-03-14T00:47:33;2.10;;;1.40;;
12171;SDS011;6149;52.418;13.668;2023-03-14T00:50:00;1.40;;;0.90;;
12171;SDS011;6149;52.418;13.668;2023-03-14T00:52:27;2.60;;;1.10;;
12171;SDS011;6149;52.418;13.668;2023-03-14T00:54:53;1.27;;;1.00;;
12171;SDS011;6149;52.418;13.668;2023-03-14T00:57:21;2.37;;;1.27;;
12171;SDS011;6149;52.418;13.668;2023-03-14T00:59:51;2.67;;;0.90;;
12171;SDS011;6149;52.418;13.668;2023-03-14T01:02:19;1.23;;;1.10;;
12171;SDS011;6149;52.418;13.668;2023-03-14T01:04:48;1.10;;;1.00;;
12171;SDS011;6149;52.418;13.668;2023-03-14T01:07:16;1.50;;;0.90;;
12171;SDS011;6149;52.418;13.668;2023-03-14T01:09:44;1.83;;;1.03;;
12171;SDS011;6149;52.418;13.668;2023-03-14T01:12:12;2.17;;;1.20;;
12171;SDS011;6149;52.418;13.668;2023-03-14T01:14:40;1.50;;;1.10;;
12171;SDS011;6149;52.418;13.668;2023-03-14T01:17:08;2.30;;;1.00;;
12171;SDS011;6149;52.418;13.668;2023-03-14T01:19:34;1.20;;;1.10;;
12171;SDS011;6149;52.418;13.668;2023-03-14T01:22:01;2.07;;;1.07;;
12171;SDS011;6149;52.418;13.668;2023-03-14T01:24:28;2.30;;;0.83;;
12171;SDS011;6149;52.418;13.668;2023-03-14T01:26:58;1.10;;;1.00;;
12171;SDS011;6149;52.418;13.668;2023-03-14T01:29:24;2.33;;;1.13;;
12171;SDS011;6149;52.418;13.668;2023-03-14T01:31:51;1.10;;;1.00;;
12171;SDS011;6149;52.418;13.668;2023-03-14T01:34:23;1.20;;;0.90;;
12171;SDS011;6149;52.418;13.668;2023-03-14T01:36:50;1.77;;;1.00;;
12171;SDS011;6149;52.418;13.668;2023-03-14T01:39:18;2.47;;;1.17;;
12171;SDS011;6149;52.418;13.668;2023-03-14T01:41:45;1.57;;;0.90;;
12171;SDS011;6149;52.418;13.668;2023-03-14T01:44:17;1.30;;;0.90;;
12171;SDS011;6149;52.418;13.668;2023-03-14T01:46:44;1.13;;;0.97;;
12171;SDS011;6149;52.418;13.668;2023-03-14T01:49:22;2.30;;;1.10;;
12171;SDS011;6149;52.418;13.668;2023-03-14T01:51:56;2.27;;;1.30;;
12171;SDS011;6149;52.418;13.668;2023-03-14T01:54:29;1.33;;;1.17;;
12171;SDS011;6149;52.418;13.668;2023-03-14T01:57:02;1.87;;;1.40;;
12171;SDS011;6149;52.418;13.668;2023-03-14T01:59:32;2.60;;;1.23;;
12171;SDS011;6149;52.418;13.668;2023-03-14T02:02:01;2.73;;;1.30;;
12171;SDS011;6149;52.418;13.668;2023-03-14T02:04:34;1.20;;;1.00;;
12171;SDS011;6149;52.418;13.668;2023-03-14T02:07:04;1.27;;;1.17;;
12171;SDS011;6149;52.418;13.668;2023-03-14T02:09:36;1.10;;;0.83;;
12171;SDS011;6149;52.418;13.668;2023-03-14T02:12:05;1.83;;;0.97;;
12171;SDS011;6149;52.418;13.668;2023-03-14T02:14:39;2.33;;;0.90;;
12171;SDS011;6149;52.418;13.668;2023-03-14T02:17:13;2.13;;;0.90;;
12171;SDS011;6149;52.418;13.668;2023-03-14T02:20:00;1.17;;;0.80;;
12171;SDS011;6149;52.418;13.668;2023-03-14T02:22:40;1.40;;;0.90;;
12171;SDS011;6149;52.418;13.668;2023-03-14T02:25:13;1.80;;;1.00;;
12171;SDS011;6149;52.418;13.668;2023-03-14T02:27:51;1.87;;;1.10;;
12171;SDS011;6149;52.418;13.668;2023-03-14T02:30:19;1.70;;;0.93;;
12171;SDS011;6149;52.418;13.668;2023-03-14T02:32:50;1.47;;;0.93;;
12171;SDS011;6149;52.418;13.668;2023-03-14T02:35:21;1.00;;;0.80;;
12171;SDS011;6149;52.418;13.668;2023-03-14T02:37:52;1.43;;;0.80;;
12171;SDS011;6149;52.418;13.668;2023-03-14T02:40:25;0.90;;;0.67;;
12171;SDS011;6149;52.418;13.668;2023-03-14T02:42:55;1.40;;;0.97;;
12171;SDS011;6149;52.418;13.668;2023-03-14T02:45:36;0.93;;;0.70;;
12171;SDS011;6149;52.418;13.668;2023-03-14T02:48:10;1.07;;;0.83;;
12171;SDS011;6149;52.418;13.668;2023-03-14T02:50:43;0.83;;;0.80;;
12171;SDS011;6149;52.418;13.668;2023-03-14T02:53:13;1.10;;;0.87;;
12171;SDS011;6149;52.418;13.668;2023-03-14T02:55:45;4.97;;;1.00;;
12171;SDS011;6149;52.418;13.668;2023-03-14T02:58:18;0.83;;;0.80;;
12171;SDS011;6149;52.418;13.668;2023-03-14T03:00:49;1.73;;;0.93;;
12171;SDS011;6149;52.418;13.668;2023-03-14T03:03:17;1.20;;;1.03;;
12171;SDS011;6149;52.418;13.668;2023-03-14T03:05:47;1.00;;;0.87;;
12171;SDS011;6149;52.418;13.668;2023-03-14T03:08:15;1.00;;;0.87;;
12171;SDS011;6149;52.418;13.668;2023-03-14T03:10:43;1.00;;;0.83;;
12171;SDS011;6149;52.418;13.668;2023-03-14T03:13:10;1.80;;;0.97;;
12171;SDS011;6149;52.418;13.668;2023-03-14T03:15:38;1.27;;;0.90;;
12171;SDS011;6149;52.418;13.668;2023-03-14T03:18:05;1.20;;;0.90;;
12171;SDS011;6149;52.418;13.668;2023-03-14T03:20:32;1.40;;;0.97;;
12171;SDS011;6149;52.418;13.668;2023-03-14T03:23:01;1.50;;;0.90;;
12171;SDS011;6149;52.418;13.668;2023-03-14T03:25:28;2.57;;;0.90;;
12171;SDS011;6149;52.418;13.668;2023-03-14T03:27:55;1.47;;;0.90;;
12171;SDS011;6149;52.418;13.668;2023-03-14T03:30:23;1.77;;;1.00;;
12171;SDS011;6149;52.418;13.668;2023-03-14T03:32:54;1.73;;;0.83;;
12171;SDS011;6149;52.418;13.668;2023-03-14T03:35:20;0.80;;;0.73;;
12171;SDS011;6149;52.418;13.668;2023-03-14T03:37:48;1.87;;;0.93;;
12171;SDS011;6149;52.418;13.668;2023-03-14T03:40:15;1.43;;;0.90;;
12171;SDS011;6149;52.418;13.668;2023-03-14T03:42:53;1.73;;;0.70;;
12171;SDS011;6149;52.418;13.668;2023-03-14T03:45:19;1.63;;;1.03;;
12171;SDS011;6149;52.418;13.668;2023-03-14T03:47:54;2.00;;;1.00;;
12171;SDS011;6149;52.418;13.668;2023-03-14T03:50:21;2.30;;;0.80;;
12171;SDS011;6149;52.418;13.668;2023-03-14T03:52:49;1.70;;;0.80;;
12171;SDS011;6149;52.418;13.668;2023-03-14T03:55:16;2.60;;;1.00;;
12171;SDS011;6149;52.418;13.668;2023-03-14T03:57:43;1.00;;;0.90;;
12171;SDS011;6149;52.418;13.668;2023-03-14T04:00:10;1.10;;;0.70;;
12171;SDS011;6149;52.418;13.668;2023-03-14T04:02:38;1.00;;;0.80;;
12171;SDS011;6149;52.418;13.668;2023-03-14T04:05:06;1.57;;;0.73;;
12171;SDS011;6149;52.418;13.668;2023-03-14T04:07:33;1.10;;;0.80;;
12171;SDS011;6149;52.418;13.668;2023-03-14T04:10:00;2.07;;;0.80;;
12171;SDS011;6149;52.418;13.668;2023-03-14T04:12:26;1.27;;;0.80;;
12171;SDS011;6149;52.418;13.668;2023-03-14T04:14:54;1.57;;;0.73;;
12171;SDS011;6149;52.418;13.668;2023-03-14T04:17:21;1.00;;;0.77;;
12171;SDS011;6149;52.418;13.668;2023-03-14T04:19:49;0.87;;;0.80;;
12171;SDS011;6149;52.418;13.668;2023-03-14T04:22:19;1.27;;;0.70;;
12171;SDS011;6149;52.418;13.668;2023-03-14T04:24:49;1.00;;;0.77;;
12171;SDS011;6149;52.418;13.668;2023-03-14T04:27:19;1.90;;;0.80;;
12171;SDS011;6149;52.418;13.668;2023-03-14T04:29:47;1.00;;;0.80;;
12171;SDS011;6149;52.418;13.668;2023-03-14T04:32:17;1.20;;;0.80;;
12171;SDS011;6149;52.418;13.668;2023-03-14T04:34:47;2.93;;;0.80;;
12171;SDS011;6149;52.418;13.668;2023-03-14T04:37:14;1.00;;;0.70;;
12171;SDS011;6149;52.418;13.668;2023-03-14T04:39:42;1.07;;;0.70;;
12171;SDS011;6149;52.418;13.668;2023-03-14T04:42:10;2.37;;;0.97;;
12171;SDS011;6149;52.418;13.668;2023-03-14T04:44:36;1.30;;;0.90;;
12171;SDS011;6149;52.418;13.668;2023-03-14T04:47:04;2.37;;;0.77;;
12171;SDS011;6149;52.418;13.668;2023-03-14T04:49:31;1.00;;;0.90;;
12171;SDS011;6149;52.418;13.668;2023-03-14T04:51:58;1.37;;;0.90;;
12171;SDS011;6149;52.418;13.668;2023-03-14T04:54:24;1.63;;;0.80;;
12171;SDS011;6149;52.418;13.668;2023-03-14T04:56:54;1.83;;;0.70;;
12171;SDS011;6149;52.418;13.668;2023-03-14T04:59:21;1.30;;;0.93;;
12171;SDS011;6149;52.418;13.668;2023-03-14T05:01:49;0.80;;;0.80;;
12171;SDS011;6149;52.418;13.668;2023-03-14T05:04:19;1.10;;;0.70;;
12171;SDS011;6149;52.418;13.668;2023-03-14T05:06:46;1.00;;;0.80;;
12171;SDS011;6149;52.418;13.668;2023-03-14T05:09:16;2.80;;;0.80;;
12171;SDS011;6149;52.418;13.668;2023-03-14T05:11:44;1.63;;;0.93;;
12171;SDS011;6149;52.418;13.668;2023-03-14T05:14:12;2.43;;;0.90;;
12171;SDS011;6149;52.418;13.668;2023-03-14T05:16:38;0.87;;;0.70;;
12171;SDS011;6149;52.418;13.668;2023-03-14T05:19:06;1.27;;;0.70;;
12171;SDS011;6149;52.418;13.668;2023-03-14T05:21:36;1.47;;;0.97;;
12171;SDS011;6149;52.418;13.668;2023-03-14T05:24:03;1.20;;;0.70;;
12171;SDS011;6149;52.418;13.668;2023-03-14T05:26:33;1.93;;;1.00;;
12171;SDS011;6149;52.418;13.668;2023-03-14T05:28:59;0.97;;;0.83;;
12171;SDS011;6149;52.418;13.668;2023-03-14T05:31:32;1.20;;;0.67;;
12171;SDS011;6149;52.418;13.668;2023-03-14T05:33:59;2.70;;;0.80;;
12171;SDS011;6149;52.418;13.668;2023-03-14T05:36:26;1.73;;;0.90;;
12171;SDS011;6149;52.418;13.668;2023-03-14T05:38:53;1.10;;;0.90;;
12171;SDS011;6149;52.418;13.668;2023-03-14T05:41:24;0.90;;;0.80;;
12171;SDS011;6149;52.418;13.668;2023-03-14T05:43:51;3.53;;;1.00;;
12171;SDS011;6149;52.418;13.668;2023-03-14T05:46:19;2.37;;;0.90;;
12171;SDS011;6149;52.418;13.668;2023-03-14T05:48:49;2.20;;;0.80;;
12171;SDS011;6149;52.418;13.668;2023-03-14T05:51:17;1.30;;;0.90;;
12171;SDS011;6149;52.418;13.668;2023-03-14T05:53:46;1.77;;;0.90;;
12171;SDS011;6149;52.418;13.668;2023-03-14T05:56:13;1.70;;;1.10;;
12171;SDS011;6149;52.418;13.668;2023-03-14T05:58:41;1.87;;;0.80;;
12171;SDS011;6149;52.418;13.668;2023-03-14T06:01:08;0.83;;;0.73;;
12171;SDS011;6149;52.418;13.668;2023-03-14T06:03:38;3.10;;;0.80;;
12171;SDS011;6149;52.418;13.668;2023-03-14T06:06:06;1.83;;;1.00;;
12171;SDS011;6149;52.418;13.668;2023-03-14T06:08:33;1.70;;;0.90;;
12171;SDS011;6149;52.418;13.668;2023-03-14T06:11:02;3.77;;;0.83;;
12171;SDS011;6149;52.418;13.668;2023-03-14T06:13:30;1.30;;;1.00;;
12171;SDS011;6149;52.418;13.668;2023-03-14T06:15:58;4.77;;;0.90;;
12171;SDS011;6149;52.418;13.668;2023-03-14T06:18:26;1.33;;;0.80;;
12171;SDS011;6149;52.418;13.668;2023-03-14T06:20:53;2.67;;;0.80;;
12171;SDS011;6149;52.418;13.668;2023-03-14T06:23:25;2.07;;;1.00;;
12171;SDS011;6149;52.418;13.668;2023-03-14T06:25:53;1.37;;;0.90;;
12171;SDS011;6149;52.418;13.668;2023-03-14T06:28:21;1.20;;;1.00;;
12171;SDS011;6149;52.418;13.668;2023-03-14T06:30:48;2.37;;;0.80;;
12171;SDS011;6149;52.418;13.668;2023-03-14T06:33:14;1.50;;;0.93;;
12171;SDS011;6149;52.418;13.668;2023-03-14T06:35:43;3.47;;;1.03;;
12171;SDS011;6149;52.418;13.668;2023-03-14T06:38:15;1.77;;;0.93;;
12171;SDS011;6149;52.418;13.668;2023-03-14T06:40:47;2.37;;;1.00;;
12171;SDS011;6149;52.418;13.668;2023-03-14T06:43:17;2.37;;;0.97;;
12171;SDS011;6149;52.418;13.668;2023-03-14T06:45:46;2.27;;;0.97;;
12171;SDS011;6149;52.418;13.668;2023-03-14T06:48:14;2.90;;;0.90;;
12171;SDS011;6149;52.418;13.668;2023-03-14T06:50:41;3.73;;;1.00;;
12171;SDS011;6149;52.418;13.668;2023-03-14T06:53:08;2.90;;;1.00;;
12171;SDS011;6149;52.418;13.668;2023-03-14T06:55:35;3.00;;;1.20;;
12171;SDS011;6149;52.418;13.668;2023-03-14T06:58:04;3.47;;;1.20;;
12171;SDS011;6149;52.418;13.668;2023-03-14T07:00:34;2.80;;;1.23;;
12171;SDS011;6149;52.418;13.668;2023-03-14T07:03:05;3.20;;;1.07;;
12171;SDS011;6149;52.418;13.668;2023-03-14T07:05:33;2.97;;;1.07;;
12171;SDS011;6149;52.418;13.668;2023-03-14T07:08:05;3.40;;;1.30;;
12171;SDS011;6149;52.418;13.668;2023-03-14T07:10:33;2.87;;;1.07;;
12171;SDS011;6149;52.418;13.668;2023-03-14T07:13:00;4.20;;;1.40;;
12171;SDS011;6149;52.418;13.668;2023-03-14T07:15:30;3.73;;;1.30;;
12171;SDS011;6149;52.418;13.668;2023-03-14T07:17:57;2.10;;;1.10;;
12171;SDS011;6149;52.418;13.668;2023-03-14T07:20:23;2.93;;;1.10;;
12171;SDS011;6149;52.418;13.668;2023-03-14T07:22:51;4.17;;;1.30;;
12171;SDS011;6149;52.418;13.668;2023-03-14T07:25:21;3.47;;;1.20;;
12171;SDS011;6149;52.418;13.668;2023-03-14T07:27:48;2.23;;;1.13;;
12171;SDS011;6149;52.418;13.668;2023-03-14T07:30:17;3.57;;;1.50;;
12171;SDS011;6149;52.418;13.668;2023-03-14T07:32:52;2.43;;;1.30;;
12171;SDS011;6149;52.418;13.668;2023-03-14T07:35:20;2.10;;;1.20;;
12171;SDS011;6149;52.418;13.668;2023-03-14T07:37:47;2.47;;;1.10;;
12171;SDS011;6149;52.418;13.668;2023-03-14T07:40:15;3.73;;;1.33;;
12171;SDS011;6149;52.418;13.668;2023-03-14T07:42:44;3.20;;;1.23;;
12171;SDS011;6149;52.418;13.668;2023-03-14T07:45:13;3.00;;;1.07;;
12171;SDS011;6149;52.418;13.668;2023-03-14T07:47:41;6.73;;;1.30;;
12171;SDS011;6149;52.418;13.668;2023-03-14T07:50:12;2.97;;;1.20;;
12171;SDS011;6149;52.418;13.668;2023-03-14T07:52:41;4.70;;;1.20;;
12171;SDS011;6149;52.418;13.668;2023-03-14T07:55:08;5.17;;;1.27;;
12171;SDS011;6149;52.418;13.668;2023-03-14T07:57:35;4.83;;;1.27;;
12171;SDS011;6149;52.418;13.668;2023-03-14T08:00:03;3.87;;;1.30;;
12171;SDS011;6149;52.418;13.668;2023-03-14T08:02:31;2.17;;;1.07;;
12171;SDS011;6149;52.418;13.668;2023-03-14T08:04:58;3.40;;;1.10;;
12171;SDS011;6149;52.418;13.668;2023-03-14T08:07:28;3.33;;;1.27;;
12171;SDS011;6149;52.418;13.668;2023-03-14T08:09:55;4.33;;;1.10;;
12171;SDS011;6149;52.418;13.668;2023-03-14T08:12:23;4.80;;;1.20;;
12171;SDS011;6149;52.418;13.668;2023-03-14T08:14:51;2.20;;;0.90;;
12171;SDS011;6149;52.418;13.668;2023-03-14T08:17:19;2.03;;;1.23;;
12171;SDS011;6149;52.418;13.668;2023-03-14T08:19:45;2.73;;;1.00;;
12171;SDS011;6149;52.418;13.668;2023-03-14T08:22:14;2.00;;;1.00;;
12171;SDS011;6149;52.418;13.668;2023-03-14T08:24:54;5.27;;;1.40;;
12171;SDS011;6149;52.418;13.668;2023-03-14T08:27:21;3.33;;;1.20;;
12171;SDS011;6149;52.418;13.668;2023-03-14T08:29:50;4.93;;;1.57;;
12171;SDS011;6149;52.418;13.668;2023-03-14T08:32:17;4.23;;;1.37;;
12171;SDS011;6149;52.418;13.668;2023-03-14T08:34:49;2.77;;;1.20;;
12171;SDS011;6149;52.418;13.668;2023-03-14T08:37:16;2.43;;;0.90;;
12171;SDS011;6149;52.418;13.668;2023-03-14T08:39:46;2.77;;;1.10;;
12171;SDS011;6149;52.418;13.668;2023-03-14T08:42:13;3.93;;;1.40;;
12171;SDS011;6149;52.418;13.668;2023-03-14T08:44:40;5.10;;;1.37;;
12171;SDS011;6149;52.418;13.668;2023-03-14T08:47:08;2.07;;;1.20;;
12171;SDS011;6149;52.418;13.668;2023-03-14T08:49:35;4.07;;;1.27;;
12171;SDS011;6149;52.418;13.668;2023-03-14T08:52:03;3.70;;;1.20;;
12171;SDS011;6149;52.418;13.668;2023-03-14T08:54:30;4.00;;;1.20;;
12171;SDS011;6149;52.418;13.668;2023-03-14T08:56:58;4.97;;;1.10;;
12171;SDS011;6149;52.418;13.668;2023-03-14T08:59:26;3.77;;;1.27;;
12171;SDS011;6149;52.418;13.668;2023-03-14T09:01:54;2.47;;;1.10;;
12171;SDS011;6149;52.418;13.668;2023-03-14T09:04:20;6.07;;;1.30;;
12171;SDS011;6149;52.418;13.668;2023-03-14T09:06:48;4.03;;;1.20;;
12171;SDS011;6149;52.418;13.668;2023-03-14T09:09:16;4.67;;;1.30;;
12171;SDS011;6149;52.418;13.668;2023-03-14T09:11:45;4.60;;;1.37;;
12171;SDS011;6149;52.418;13.668;2023-03-14T09:14:16;4.23;;;1.27;;
12171;SDS011;6149;52.418;13.668;2023-03-14T09:16:51;3.43;;;1.17;;
12171;SDS011;6149;52.418;13.668;2023-03-14T09:19:21;2.57;;;1.03;;
12171;SDS011;6149;52.418;13.668;2023-03-14T09:21:51;4.40;;;1.43;;
12171;SDS011;6149;52.418;13.668;2023-03-14T09:24:20;4.87;;;1.27;;
12171;SDS011;6149;52.418;13.668;2023-03-14T09:26:46;3.67;;;1.10;;
12171;SDS011;6149;52.418;13.668;2023-03-14T09:29:20;2.63;;;1.10;;
12171;SDS011;6149;52.418;13.668;2023-03-14T09:31:48;3.97;;;1.20;;
12171;SDS011;6149;52.418;13.668;2023-03-14T09:34:16;3.33;;;1.10;;
12171;SDS011;6149;52.418;13.668;2023-03-14T09:36:44;2.10;;;1.17;;
12171;SDS011;6149;52.418;13.668;2023-03-14T09:39:11;5.80;;;1.23;;
12171;SDS011;6149;52.418;13.668;2023-03-14T09:41:38;3.00;;;1.30;;
12171;SDS011;6149;52.418;13.668;2023-03-14T09:44:09;4.27;;;1.23;;
12171;SDS011;6149;52.418;13.668;2023-03-14T09:46:43;3.30;;;1.23;;
12171;SDS011;6149;52.418;13.668;2023-03-14T09:49:18;1.97;;;1.17;;
12171;SDS011;6149;52.418;13.668;2023-03-14T09:51:49;4.73;;;1.23;;
12171;SDS011;6149;52.418;13.668;2023-03-14T09:54:27;4.13;;;1.30;;
12171;SDS011;6149;52.418;13.668;2023-03-14T09:57:01;3.67;;;1.47;;
12171;SDS011;6149;52.418;13.668;2023-03-14T09:59:31;3.10;;;1.30;;
12171;SDS011;6149;52.418;13.668;2023-03-14T10:02:14;3.10;;;1.10;;
12171;SDS011;6149;52.418;13.668;2023-03-14T10:04:45;3.57;;;1.40;;
12171;SDS011;6149;52.418;13.668;2023-03-14T10:07:15;4.97;;;1.40;;
12171;SDS011;6149;52.418;13.668;2023-03-14T10:09:48;5.00;;;1.37;;
12171;SDS011;6149;52.418;13.668;2023-03-14T10:12:17;2.60;;;1.23;;
12171;SDS011;6149;52.418;13.668;2023-03-14T10:14:57;4.33;;;1.23;;
12171;SDS011;6149;52.418;13.668;2023-03-14T10:17:37;4.53;;;1.10;;
12171;SDS011;6149;52.418;13.668;2023-03-14T10:20:14;2.73;;;1.10;;
12171;SDS011;6149;52.418;13.668;2023-03-14T10:22:59;5.70;;;1.30;;
12171;SDS011;6149;52.418;13.668;2023-03-14T10:25:28;3.57;;;1.30;;
12171;SDS011;6149;52.418;13.668;2023-03-14T10:27:59;4.43;;;1.10;;
12171;SDS011;6149;52.418;13.668;2023-03-14T10:30:27;3.80;;;1.00;;
12171;SDS011;6149;52.418;13.668;2023-03-14T10:33:11;2.97;;;1.00;;
12171;SDS011;6149;52.418;13.668;2023-03-14T10:35:52;3.37;;;0.90;;
12171;SDS011;6149;52.418;13.668;2023-03-14T10:38:24;2.70;;;1.10;;
12171;SDS011;6149;52.418;13.668;2023-03-14T10:40:54;2.23;;;0.87;;
12171;SDS011;6149;52.418;13.668;2023-03-14T10:43:25;2.77;;;0.93;;
12171;SDS011;6149;52.418;13.668;2023-03-14T10:45:58;1.70;;;1.00;;
12171;SDS011;6149;52.418;13.668;2023-03-14T10:48:38;1.30;;;0.70;;
12171;SDS011;6149;52.418;13.668;2023-03-14T10:51:17;2.07;;;0.83;;
12171;SDS011;6149;52.418;13.668;2023-03-14T10:53:47;2.17;;;0.93;;
12171;SDS011;6149;52.418;13.668;2023-03-14T10:56:23;1.53;;;0.73;;
12171;SDS011;6149;52.418;13.668;2023-03-14T10:58:56;2.20;;;0.90;;
12171;SDS011;6149;52.418;13.668;2023-03-14T11:01:27;1.67;;;0.90;;
12171;SDS011;6149;52.418;13.668;2023-03-14T11:04:13;2.30;;;0.80;;
12171;SDS011;6149;52.418;13.668;2023-03-14T11:06:53;4.03;;;1.27;;
12171;SDS011;6149;52.418;13.668;2023-03-14T11:09:28;3.13;;;0.90;;
12171;SDS011;6149;52.418;13.668;2023-03-14T11:12:01;2.23;;;0.77;;
12171;SDS011;6149;52.418;13.668;2023-03-14T11:14:43;2.90;;;0.90;;
12171;SDS011;6149;52.418;13.668;2023-03-14T11:17:20;3.10;;;0.97;;
12171;SDS011;6149;52.418;13.668;2023-03-14T11:20:04;2.87;;;1.27;;
12171;SDS011;6149;52.418;13.668;2023-03-14T11:22:55;3.43;;;0.90;;
12171;SDS011;6149;52.418;13.668;2023-03-14T11:25:29;1.90;;;1.00;;
12171;SDS011;6149;52.418;13.668;2023-03-14T11:28:08;2.37;;;1.30;;
12171;SDS011;6149;52.418;13.668;2023-03-14T11:30:49;3.13;;;1.00;;
12171;SDS011;6149;52.418;13.668;2023-03-14T11:33:21;2.53;;;1.30;;
12171;SDS011;6149;52.418;13.668;2023-03-14T11:35:55;3.07;;;0.97;;
12171;SDS011;6149;52.418;13.668;2023-03-14T11:38:29;3.83;;;1.17;;
12171;SDS011;6149;52.418;13.668;2023-03-14T11:41:00;1.63;;;0.90;;
12171;SDS011;6149;52.418;13.668;2023-03-14T11:43:28;2.67;;;0.83;;
12171;SDS011;6149;52.418;13.668;2023-03-14T11:46:03;2.67;;;0.90;;
12171;SDS011;6149;52.418;13.668;2023-03-14T11:48:36;2.13;;;1.00;;
12171;SDS011;6149;52.418;13.668;2023-03-14T11:51:15;2.33;;;0.97;;
12171;SDS011;6149;52.418;13.668;2023-03-14T11:53:52;3.43;;;0.90;;
12171;SDS011;6149;52.418;13.668;2023-03-14T11:56:26;2.43;;;1.07;;
12171;SDS011;6149;52.418;13.668;2023-03-14T11:59:02;3.00;;;1.00;;
12171;SDS011;6149;52.418;13.668;2023-03-14T12:01:40;1.30;;;0.70;;
12171;SDS011;6149;52.418;13.668;2023-03-14T12:04:31;2.97;;;1.00;;
12171;SDS011;6149;52.418;13.668;2023-03-14T12:07:14;2.73;;;1.00;;
12171;SDS011;6149;52.418;13.668;2023-03-14T12:09:47;1.97;;;0.90;;
12171;SDS011;6149;52.418;13.668;2023-03-14T12:12:18;2.30;;;1.00;;
12171;SDS011;6149;52.418;13.668;2023-03-14T12:14:52;2.00;;;0.87;;
12171;SDS011;6149;52.418;13.668;2023-03-14T12:17:22;2.73;;;0.83;;
12171;SDS011;6149;52.418;13.668;2023-03-14T12:20:04;2.97;;;0.87;;
12171;SDS011;6149;52.418;13.668;2023-03-14T12:22:56;2.80;;;1.00;;
12171;SDS011;6149;52.418;13.668;2023-03-14T12:25:29;4.00;;;1.00;;
12171;SDS011;6149;52.418;13.668;2023-03-14T12:28:03;2.07;;;0.97;;
12171;SDS011;6149;52.418;13.668;2023-03-14T12:30:44;2.20;;;0.83;;
12171;SDS011;6149;52.418;13.668;2023-03-14T12:33:21;2.20;;;0.80;;
12171;SDS011;6149;52.418;13.668;2023-03-14T12:36:04;1.90;;;0.80;;
12171;SDS011;6149;52.418;13.668;2023-03-14T12:38:54;1.23;;;0.77;;
12171;SDS011;6149;52.418;13.668;2023-03-14T12:41:34;3.03;;;1.00;;
12171;SDS011;6149;52.418;13.668;2023-03-14T12:44:37;2.57;;;0.70;;
12171;SDS011;6149;52.418;13.668;2023-03-14T12:50:20;1.10;;;0.50;;
12171;SDS011;6149;52.418;13.668;2023-03-14T12:53:00;1.27;;;0.67;;
12171;SDS011;6149;52.418;13.668;2023-03-14T12:56:19;1.50;;;0.57;;
12171;SDS011;6149;52.418;13.668;2023-03-14T13:01:55;1.90;;;0.70;;
12171;SDS011;6149;52.418;13.668;2023-03-14T13:04:26;2.00;;;0.83;;
12171;SDS011;6149;52.418;13.668;2023-03-14T13:07:00;2.33;;;0.93;;
12171;SDS011;6149;52.418;13.668;2023-03-14T13:09:35;1.20;;;0.60;;
12171;SDS011;6149;52.418;13.668;2023-03-14T13:12:49;1.27;;;0.80;;
12171;SDS011;6149;52.418;13.668;2023-03-14T13:15:22;1.63;;;0.50;;
12171;SDS011;6149;52.418;13.668;2023-03-14T13:17:59;1.43;;;0.60;;
12171;SDS011;6149;52.418;13.668;2023-03-14T13:20:35;2.07;;;0.40;;
12171;SDS011;6149;52.418;13.668;2023-03-14T13:23:18;1.13;;;0.50;;
12171;SDS011;6149;52.418;13.668;2023-03-14T13:25:49;2.17;;;0.60;;
12171;SDS011;6149;52.418;13.668;2023-03-14T13:28:18;1.00;;;0.40;;
12171;SDS011;6149;52.418;13.668;2023-03-14T13:30:46;1.83;;;0.40;;
12171;SDS011;6149;52.418;13.668;2023-03-14T13:33:16;2.40;;;0.50;;
12171;SDS011;6149;52.418;13.668;2023-03-14T13:35:46;1.27;;;0.63;;
12171;SDS011;6149;52.418;13.668;2023-03-14T13:38:17;0.60;;;0.40;;
12171;SDS011;6149;52.418;13.668;2023-03-14T13:40:46;2.83;;;0.70;;
12171;SDS011;6149;52.418;13.668;2023-03-14T13:43:16;1.20;;;0.70;;
12171;SDS011;6149;52.418;13.668;2023-03-14T13:45:49;1.33;;;0.57;;
12171;SDS011;6149;52.418;13.668;2023-03-14T13:48:20;1.00;;;0.60;;
12171;SDS011;6149;52.418;13.668;2023-03-14T13:50:53;1.33;;;0.53;;
12171;SDS011;6149;52.418;13.668;2023-03-14T13:53:23;2.73;;;0.70;;
12171;SDS011;6149;52.418;13.668;2023-03-14T13:55:50;1.10;;;0.70;;
12171;SDS011;6149;52.418;13.668;2023-03-14T13:58:23;0.90;;;0.50;;
12171;SDS011;6149;52.418;13.668;2023-03-14T14:01:00;2.30;;;0.80;;
12171;SDS011;6149;52.418;13.668;2023-03-14T14:03:32;2.27;;;0.70;;
12171;SDS011;6149;52.418;13.668;2023-03-14T14:06:04;2.20;;;1.10;;
12171;SDS011;6149;52.418;13.668;2023-03-14T14:08:39;2.00;;;0.80;;
12171;SDS011;6149;52.418;13.668;2023-03-14T14:11:07;0.90;;;0.70;;
12171;SDS011;6149;52.418;13.668;2023-03-14T14:13:47;1.10;;;0.67;;
12171;SDS011;6149;52.418;13.668;2023-03-14T14:16:16;0.87;;;0.50;;
12171;SDS011;6149;52.418;13.668;2023-03-14T14:18:48;1.37;;;0.70;;
12171;SDS011;6149;52.418;13.668;2023-03-14T14:21:15;2.13;;;0.63;;
12171;SDS011;6149;52.418;13.668;2023-03-14T14:23:42;1.37;;;0.80;;
12171;SDS011;6149;52.418;13.668;2023-03-14T14:26:13;2.07;;;0.90;;
12171;SDS011;6149;52.418;13.668;2023-03-14T14:28:44;1.03;;;0.70;;
12171;SDS011;6149;52.418;13.668;2023-03-14T14:31:20;0.87;;;0.60;;
12171;SDS011;6149;52.418;13.668;2023-03-14T14:33:53;1.07;;;0.87;;
12171;SDS011;6149;52.418;13.668;2023-03-14T14:36:23;1.63;;;0.70;;
12171;SDS011;6149;52.418;13.668;2023-03-14T14:39:00;1.03;;;0.50;;
12171;SDS011;6149;52.418;13.668;2023-03-14T14:41:34;0.50;;;0.40;;
12171;SDS011;6149;52.418;13.668;2023-03-14T14:44:10;1.87;;;0.70;;
12171;SDS011;6149;52.418;13.668;2023-03-14T14:46:41;0.73;;;0.50;;
12171;SDS011;6149;52.418;13.668;2023-03-14T14:49:09;2.03;;;0.70;;
12171;SDS011;6149;52.418;13.668;2023-03-14T14:51:41;1.13;;;0.67;;
12171;SDS011;6149;52.418;13.668;2023-03-14T14:54:11;1.43;;;0.70;;
12171;SDS011;6149;52.418;13.668;2023-03-14T14:56:45;0.97;;;0.50;;
12171;SDS011;6149;52.418;13.668;2023-03-14T14:59:23;0.90;;;0.50;;
12171;SDS011;6149;52.418;13.668;2023-03-14T15:02:02;1.57;;;0.50;;
12171;SDS011;6149;52.418;13.668;2023-03-14T15:04:30;1.30;;;0.53;;
12171;SDS011;6149;52.418;13.668;2023-03-14T15:06:59;0.93;;;0.50;;
12171;SDS011;6149;52.418;13.668;2023-03-14T15:09:26;1.17;;;0.40;;
12171;SDS011;6149;52.418;13.668;2023-03-14T15:11:55;1.17;;;0.60;;
12171;SDS011;6149;52.418;13.668;2023-03-14T15:14:22;0.70;;;0.53;;
12171;SDS011;6149;52.418;13.668;2023-03-14T15:16:48;1.47;;;0.60;;